Archival Weather

Ahwaz

Ahwaz, Iran (OIAW)

Report from: Sunday, October 1, 2023 3:30 PM +0330
Current time: Friday, July 19, 2024 7:08 AM +0330

Current weather – Weather history – Daily summaries
Weather forecast

Temperature40.0°C (104.0°F)
Heat index38.2°C (100.7°F)
Dew point9.0°C (48.2°F)
Winds 4 kts (2.1 m/s, 4.6 mph) East-Northeast (60°)
Clouds Sky clear
Altimeter29.74 in.Hg (1007 mB)
Relative humidity16 %
Density altitude3,183 ft. (970 m)
Remarks Ceiling and visibility OK
Flight conditions Visual Meteorological Conditions
Raw dataOIAW 011200Z 06004KT CAVOK 40/09 Q1007
An error has occurred. This application may no longer respond until reloaded. Reload 🗙